• Join FlightAware (Why Join?)
  • Login
  • US Flag 
07:50PM EDT


 

Airport Tracker/Info


-or-


 

Live Flight TrackerFlight Track Log ✈ RPA3390 ✈ 30-Sep-2013 ✈ KBNA - KPHL

Flight Track Log - Related Links

Times and Time Zones

All times are in EDT time to prevent confusion due to time zone crossing. See the RPA3390 flight status page for this flight to view local times or setup timezone preferences in your user account.

Time Position Orientation Groundspeed Altitude Reporting Facility
EDT Latitude Longitude Course Direction KTS MPH feet Rate Location/Type
12:49PM 36.1000 -86.6833 68° East 154 177 1,500  Level Nashville TRACON
12:50PM 36.0667 -86.6500 141° Southeast 216 249 3,000 1,500 Climbing Nashville TRACON
12:51PM 36.2639 -86.3229 64° Northeast  Level Estimated
12:51PM 36.0833 -86.5667 76° East 291 335 4,700  Level Nashville TRACON
12:52PM 36.3101 -86.2042 64° Northeast  Level Estimated
12:52PM 36.1067 -86.4264 78° East 294 338 9,100  Level Memphis Center
12:53PM 36.3563 -86.0854 68° East  Level Estimated
12:53PM 36.1325 -86.3222 73° East 308 354 10,900  Level Memphis Center
12:54PM 36.4022 -85.9664 68° East  Level Estimated
12:54PM 36.1642 -86.2078 71° East 328 377 13,600  Level Memphis Center
12:55PM 36.1936 -86.0956 72° East 333 383 15,900 2,160 Climbing Memphis Center
12:56PM 36.2378 -85.9853 64° Northeast 345 397 18,000 2,040 Climbing Memphis Center
12:57PM 36.2881 -85.8719 61° Northeast 362 417 20,000 1,920 Climbing Memphis Center
12:58PM 36.3119 -85.8175 61° Northeast 371 427 21,100 1,740 Climbing Indianapolis Center
12:59PM 36.3644 -85.7081 59° Northeast 377 434 22,900 1,740 Climbing Indianapolis Center
01:00PM 36.4308 -85.5703 59° Northeast 385 443 24,800 1,740 Climbing Indianapolis Center
01:01PM 36.4853 -85.4544 60° Northeast 388 447 26,500 1,560 Climbing Indianapolis Center
01:02PM 36.5406 -85.3364 60° Northeast 392 451 28,100 1,320 Climbing Indianapolis Center
01:03PM 36.5956 -85.2203 59° Northeast 390 449 29,300 960 Climbing Indianapolis Center
01:04PM 36.6408 -85.0931 66° East 400 460 30,200 840 Climbing Indianapolis Center
01:05PM 36.6817 -84.9611 69° East 407 468 31,100 900 Climbing Indianapolis Center
01:06PM 36.7228 -84.8267 69° East 412 474 32,100 960 Climbing Indianapolis Center
01:07PM 36.7711 -84.6667 69° East 411 473 33,200 900 Climbing Indianapolis Center
01:08PM 36.8108 -84.5347 69° East 409 471 34,000 720 Climbing Indianapolis Center
01:09PM 36.8483 -84.4136 69° East 407 468 34,800 480 Climbing Indianapolis Center
01:10PM 36.8864 -84.2817 70° East 404 465 35,000 60 Climbing Indianapolis Center
01:11PM 36.9336 -84.1283 69° East 405 466 35,000  Level Indianapolis Center
01:12PM 36.9719 -83.9953 70° East 406 467 35,000  Level Indianapolis Center
01:13PM 37.0122 -83.8633 69° East 405 466 35,000  Level Indianapolis Center
01:14PM 37.0506 -83.7331 70° East 399 459 35,000  Level Indianapolis Center
01:15PM 37.0892 -83.6022 70° East 398 458 35,000  Level Indianapolis Center
01:16PM 37.1275 -83.4692 70° East 403 464 35,000  Level Indianapolis Center
01:18PM 37.1731 -83.3158 70° East 400 460 35,000  Level Indianapolis Center
01:19PM 37.2111 -83.1811 70° East 404 465 35,000  Level Indianapolis Center
01:20PM 37.2497 -83.0481 70° East 403 464 35,000  Level Indianapolis Center
01:21PM 37.2889 -82.9133 70° East 406 467 35,000  Level Indianapolis Center
01:22PM 37.3269 -82.7797 70° East 403 464 35,000  Level Indianapolis Center
01:23PM 37.3650 -82.6447 70° East 406 467 35,000  Level Indianapolis Center
01:24PM 37.4033 -82.5094 70° East 408 470 35,000  Level Indianapolis Center
01:25PM 37.4406 -82.3747 71° East 408 470 35,000  Level Indianapolis Center
01:26PM 37.4842 -82.2169 71° East 409 471 35,000  Level Indianapolis Center
01:27PM 37.5219 -82.0825 70° East 408 470 35,000  Level Indianapolis Center
01:28PM 37.5586 -81.9481 71° East 406 467 35,000  Level Indianapolis Center
01:29PM 37.5967 -81.8122 70° East 409 471 35,000  Level Indianapolis Center
01:30PM 37.6375 -81.6608 71° East 407 468 35,000  Level Indianapolis Center
01:31PM 37.6692 -81.5425 71° East 405 466 35,000  Level Indianapolis Center
01:32PM 37.7086 -81.3983 71° East 406 467 35,000  Level Indianapolis Center
01:33PM 37.7436 -81.2664 71° East 408 470 35,000  Level Indianapolis Center
01:34PM 37.7828 -81.1050 73° East 410 472 35,000  Level Indianapolis Center
01:35PM 37.7922 -80.9625 85° East 417 480 35,000  Level Indianapolis Center
01:36PM 37.8017 -80.8192 85° East 420 483 35,000  Level Indianapolis Center
01:37PM 37.8119 -80.6458 86° East 422 486 35,000  Level Indianapolis Center
01:38PM 37.8200 -80.5197 85° East 423 487 35,000  Level Indianapolis Center
01:39PM 37.8300 -80.3528 86° East 430 495 35,000  Level Indianapolis Center
01:40PM 37.8389 -80.2044 86° East 435 501 35,000 -60 Level Indianapolis Center
01:41PM 37.8514 -80.0261 85° East 426 490 34,900 -540 Descending Washington Center
01:42PM 37.8611 -79.8714 85° East 426 490 33,900 -960 Descending Washington Center
01:43PM 37.8686 -79.7192 86° East 433 498 33,000 -480 Descending Washington Center
01:44PM 37.8797 -79.5778 84° East 442 509 33,000  Level Washington Center
01:45PM 37.8869 -79.4203 87° East 442 509 33,000  Level Washington Center
01:46PM 37.8961 -79.2628 86° East 442 509 33,000  Level Washington Center
01:47PM 37.9047 -79.1078 86° East 442 509 33,000  Level Washington Center
01:48PM 37.9219 -78.9508 82° East 442 509 33,000  Level Washington Center
01:49PM 37.9433 -78.7781 81° East 442 509 33,000  Level Washington Center
01:50PM 37.9619 -78.6233 81° East 442 509 33,000  Level Washington Center
01:51PM 37.9825 -78.4661 81° East 442 509 33,000  Level Washington Center
01:52PM 38.0008 -78.3086 82° East 442 509 33,000 -660 Level Washington Center
01:53PM 38.0142 -78.1667 83° East 447 514 31,800 -1,020 Descending Washington Center
01:54PM 38.0756 -78.0317 60° Northeast 435 501 31,000 -420 Descending Washington Center
01:55PM 38.1406 -77.9019 57° Northeast 430 495 31,000 -60 Level Washington Center
01:56PM 38.2078 -77.7639 58° Northeast 442 509 30,900 -720 Descending Washington Center
01:57PM 38.2706 -77.6333 58° Northeast 442 509 29,600 -960 Descending Washington Center
01:58PM 38.3375 -77.5003 57° Northeast 442 509 29,000 -360 Descending Washington Center
01:59PM 38.4083 -77.3589 57° Northeast 452 520 29,000 -300 Level Washington Center
02:00PM 38.4792 -77.2094 59° Northeast 466 536 28,500 -900 Descending Washington Center
02:01PM 38.5500 -77.0622 58° Northeast 477 549 27,200 -1,380 Descending Washington Center
02:02PM 38.6183 -76.9256 57° Northeast 472 543 25,800 -1,440 Descending Washington Center
02:03PM 38.6864 -76.7858 58° Northeast 461 531 24,300 -960 Descending Washington Center
02:04PM 38.7275 -76.6322 71° East 456 525 24,000 -1,380 Descending Washington Center
02:05PM 38.7578 -76.4808 76° East 446 513 21,700 -2,280 Descending Washington Center
02:06PM 38.7900 -76.3347 74° East 428 493 19,500 -2,160 Descending Washington Center
02:07PM 38.8181 -76.1939 76° East 419 482 17,400 -2,280 Descending Washington Center
02:08PM 38.8519 -76.0367 74° East 408 470 15,000 -1,200 Descending Washington Center
02:09PM 38.8794 -75.9036 75° East 395 455 15,000 -480 Level Washington Center
02:10PM 38.9381 -75.7944 55° Northeast 374 430 14,100 -1,020 Descending Washington Center
02:11PM 39.0425 -75.7519 18° North 350 403 13,000 -1,140 Descending Washington Center
02:13PM 39.2333 -75.6667 19° North 335 386 10,700 -1,080 Descending Philadelphia TRACON
02:14PM 39.3167 -75.6333 17° North 294 338 9,900 -1,260 Descending Philadelphia TRACON
02:15PM 39.3833 -75.5667 38° Northeast 294 338 8,300 -1,560 Descending Philadelphia TRACON
02:16PM 39.4167 -75.4833 63° Northeast 293 337 7,000 -660 Descending Philadelphia TRACON
02:17PM 39.4667 -75.3833 57° Northeast 293 337 7,000  Level Philadelphia TRACON
02:18PM 39.5167 -75.3000 52° Northeast 294 338 7,000  Level Philadelphia TRACON
02:19PM 39.5667 -75.2333 46° Northeast 294 338 7,000  Level Philadelphia TRACON
02:20PM 39.6167 -75.1500 52° Northeast 294 338 7,000  Level Philadelphia TRACON
02:21PM 39.6667 -75.0667 52° Northeast 238 274 7,000 -60 Level Philadelphia TRACON
02:22PM 39.7333 -75.0833 349° North 234 269 6,900 -540 Descending Philadelphia TRACON
02:23PM 39.7833 -75.0833 360° North 221 254 6,000 -540 Descending Philadelphia TRACON
02:24PM 39.8167 -75.0167 57° Northeast 208 239 5,900 -540 Descending Philadelphia TRACON
02:25PM 39.8333 -74.9500 72° East 203 234 5,000 -480 Descending Philadelphia TRACON
02:26PM 39.8500 -74.8833 72° East 180 207 5,000  Level Philadelphia TRACON
02:27PM 39.8667 -74.8167 72° East 183 211 5,000 -180 Level Philadelphia TRACON
02:28PM 39.9000 -74.8000 21° North 175 201 4,700 -540 Descending Philadelphia TRACON
02:29PM 39.9333 -74.8500 311° West 183 211 4,000 -360 Descending Philadelphia TRACON
02:30PM 39.9333 -74.9167 270° West 175 201 4,000 -120 Level Philadelphia TRACON
02:31PM 39.9167 -74.9833 252° West 174 200 3,800 -600 Descending Philadelphia TRACON
02:32PM 39.9167 -75.0333 270° West 176 203 2,900 -900 Descending Philadelphia TRACON
02:33PM 39.9000 -75.1000 252° West 171 197 2,000 -840 Descending Philadelphia TRACON
02:34PM 39.8833 -75.1500 247° West 130 150 1,300 -720 Descending Philadelphia TRACON
02:35PM 39.8833 -75.1833 270° West 133 153 600 -720 Descending Philadelphia TRACON